createdAt,value
2019-02-11T00:02:11.522Z,0.80
2019-02-11T00:04:41.284Z,0.80
2019-02-11T00:07:11.072Z,0.90
2019-02-11T00:09:40.946Z,0.70
2019-02-11T00:12:10.741Z,0.72
2019-02-11T00:14:40.527Z,0.80
2019-02-11T00:17:10.389Z,0.90
2019-02-11T00:19:40.201Z,0.80
2019-02-11T00:22:10.045Z,0.70
2019-02-11T00:24:39.856Z,0.60
2019-02-11T00:27:09.753Z,0.90
2019-02-11T00:29:39.604Z,0.80
2019-02-11T00:32:09.361Z,0.80
2019-02-11T00:34:39.274Z,0.82
2019-02-11T00:37:09.122Z,0.80
2019-02-11T00:39:41.320Z,0.90
2019-02-11T00:42:11.109Z,0.90
2019-02-11T00:44:40.910Z,0.80
2019-02-11T00:47:10.669Z,0.90
2019-02-11T00:49:40.446Z,1.00
2019-02-11T00:52:10.249Z,0.90
2019-02-11T00:54:40.048Z,0.98
2019-02-11T00:57:09.823Z,0.80
2019-02-11T00:59:39.720Z,0.80
2019-02-11T01:02:09.545Z,0.90
2019-02-11T01:04:39.415Z,1.00
2019-02-11T01:07:09.602Z,0.85
2019-02-11T01:09:39.384Z,0.90
2019-02-11T01:12:09.165Z,0.90
2019-02-11T01:14:39.030Z,1.10
2019-02-11T01:17:08.818Z,0.90
2019-02-11T01:19:38.600Z,0.90
2019-02-11T01:22:09.651Z,0.90
2019-02-11T01:24:39.455Z,1.30
2019-02-11T01:27:09.333Z,1.05
2019-02-11T01:29:39.137Z,0.90
2019-02-11T01:32:09.257Z,1.00
2019-02-11T01:34:39.125Z,0.83
2019-02-11T01:37:09.086Z,1.00
2019-02-11T01:39:38.872Z,1.00
2019-02-11T01:42:08.710Z,0.90
2019-02-11T01:44:38.497Z,0.90
2019-02-11T01:47:08.311Z,1.00
2019-02-11T01:49:38.082Z,0.90
2019-02-11T01:52:07.890Z,0.90
2019-02-11T01:54:37.687Z,1.00
2019-02-11T01:57:08.547Z,1.10
2019-02-11T01:59:38.350Z,1.00
2019-02-11T02:02:08.113Z,1.00
2019-02-11T02:04:38.114Z,0.90
2019-02-11T02:07:07.974Z,0.93
2019-02-11T02:09:37.821Z,0.90
2019-02-11T02:12:07.601Z,0.82
2019-02-11T02:14:37.473Z,0.90
2019-02-11T02:17:07.250Z,0.80
2019-02-11T02:19:37.034Z,1.00
2019-02-11T02:22:06.821Z,0.85
2019-02-11T02:24:36.674Z,1.00
2019-02-11T02:27:06.452Z,0.90
2019-02-11T02:29:36.251Z,0.90
2019-02-11T02:32:06.018Z,0.80
2019-02-11T02:34:35.809Z,0.80
2019-02-11T02:37:05.669Z,0.88
2019-02-11T02:39:35.454Z,0.85
2019-02-11T02:42:05.226Z,0.88
2019-02-11T02:44:35.009Z,1.00
2019-02-11T02:47:04.769Z,0.80
2019-02-11T02:49:34.549Z,0.80
2019-02-11T02:52:04.504Z,0.80
2019-02-11T02:54:34.283Z,0.70
2019-02-11T02:57:04.290Z,0.80
2019-02-11T02:59:34.155Z,0.70
2019-02-11T03:02:04.441Z,0.70
2019-02-11T03:04:34.274Z,0.62
2019-02-11T03:07:04.058Z,0.75
2019-02-11T03:09:33.915Z,0.70
2019-02-11T03:12:03.789Z,0.70
2019-02-11T03:14:33.570Z,0.80
2019-02-11T03:17:03.499Z,0.80
2019-02-11T03:19:33.338Z,0.80
2019-02-11T03:22:03.229Z,0.80
2019-02-11T03:24:33.046Z,0.90
2019-02-11T03:27:02.844Z,0.80
2019-02-11T03:29:33.735Z,0.80
2019-02-11T03:32:03.575Z,0.90
2019-02-11T03:34:33.406Z,0.80
2019-02-11T03:37:03.630Z,0.70
2019-02-11T03:39:33.479Z,0.75
2019-02-11T03:42:03.378Z,0.80
2019-02-11T03:44:33.331Z,0.80
2019-02-11T03:47:03.148Z,0.80
2019-02-11T03:49:32.947Z,0.80
2019-02-11T03:52:02.748Z,0.90
2019-02-11T03:54:32.716Z,0.80
2019-02-11T03:57:02.474Z,0.80
2019-02-11T03:59:32.257Z,0.90
2019-02-11T04:02:02.045Z,0.85
2019-02-11T04:04:31.849Z,0.90
2019-02-11T04:07:01.609Z,0.90
2019-02-11T04:09:32.597Z,0.82
2019-02-11T04:12:02.379Z,1.00
2019-02-11T04:14:32.313Z,0.90
2019-02-11T04:17:02.162Z,0.93
2019-02-11T04:19:31.950Z,1.00
2019-02-11T04:22:06.569Z,0.90
2019-02-11T04:24:36.428Z,0.90
2019-02-11T04:27:06.270Z,0.80
2019-02-11T04:29:36.106Z,0.80
2019-02-11T04:32:05.891Z,0.90
2019-02-11T04:34:35.701Z,0.90
2019-02-11T04:37:05.575Z,0.90
2019-02-11T04:39:35.412Z,0.90
2019-02-11T04:42:05.309Z,1.00
2019-02-11T04:44:35.102Z,0.97
2019-02-11T04:47:05.018Z,1.10
2019-02-11T04:49:34.782Z,1.30
2019-02-11T04:52:04.580Z,1.20
2019-02-11T04:54:34.361Z,1.30
2019-02-11T04:57:04.180Z,1.47
2019-02-11T04:59:33.947Z,1.70
2019-02-11T05:02:03.792Z,1.50
2019-02-11T05:04:33.594Z,1.40
2019-02-11T05:07:03.486Z,1.60
2019-02-11T05:09:33.226Z,1.70
2019-02-11T05:12:03.114Z,1.87
2019-02-11T05:14:32.986Z,1.80
2019-02-11T05:17:02.745Z,1.72
2019-02-11T05:19:32.742Z,1.90
2019-02-11T05:22:02.515Z,2.22
2019-02-11T05:24:32.305Z,2.30
2019-02-11T05:27:02.124Z,2.35
2019-02-11T05:29:31.925Z,1.98
2019-02-11T05:32:01.739Z,2.22
2019-02-11T05:34:31.541Z,2.30
2019-02-11T05:37:01.341Z,2.40
2019-02-11T05:39:31.114Z,2.05
2019-02-11T05:42:00.885Z,2.22
2019-02-11T05:44:30.677Z,2.50
2019-02-11T05:47:00.583Z,2.50
2019-02-11T05:49:30.356Z,2.20
2019-02-11T05:52:00.271Z,2.22
2019-02-11T05:54:30.046Z,2.40
2019-02-11T05:56:59.934Z,2.17
2019-02-11T05:59:29.706Z,2.00
2019-02-11T06:01:59.592Z,1.95
2019-02-11T06:04:29.493Z,1.70
2019-02-11T06:06:59.302Z,1.80
2019-02-11T06:09:29.098Z,2.37
2019-02-11T06:11:58.861Z,1.80
2019-02-11T06:14:28.643Z,2.00
2019-02-11T06:16:58.466Z,2.10
2019-02-11T06:19:28.461Z,2.12
2019-02-11T06:21:58.245Z,2.00
2019-02-11T06:24:28.056Z,2.20
2019-02-11T06:26:58.033Z,2.40
2019-02-11T06:29:27.905Z,2.10
2019-02-11T06:31:57.714Z,2.30
2019-02-11T06:34:27.672Z,2.60
2019-02-11T06:36:57.490Z,2.30
2019-02-11T06:39:27.339Z,2.42
2019-02-11T06:42:00.212Z,2.30
2019-02-11T06:44:30.028Z,2.42
2019-02-11T06:46:59.860Z,2.40
2019-02-11T06:49:30.541Z,2.30
2019-02-11T06:52:00.423Z,2.15
2019-02-11T06:54:30.422Z,2.40
2019-02-11T06:57:00.300Z,2.37
2019-02-11T06:59:30.536Z,2.33
2019-02-11T07:02:00.609Z,2.30
2019-02-11T07:04:30.421Z,2.45
2019-02-11T07:07:00.307Z,2.37
2019-02-11T07:09:30.124Z,2.65
2019-02-11T07:11:59.985Z,2.98
2019-02-11T07:14:29.865Z,3.00
2019-02-11T07:16:59.703Z,3.22
2019-02-11T07:19:29.573Z,2.90
2019-02-11T07:21:59.345Z,3.20
2019-02-11T07:24:29.154Z,3.65
2019-02-11T07:26:58.987Z,3.27
2019-02-11T07:29:28.880Z,3.30
2019-02-11T07:31:58.836Z,3.37
2019-02-11T07:34:28.633Z,3.50
2019-02-11T07:36:58.496Z,4.53
2019-02-11T07:39:28.384Z,3.72
2019-02-11T07:42:12.084Z,3.80
2019-02-11T07:44:45.656Z,3.65
2019-02-11T07:47:15.482Z,3.73
2019-02-11T07:49:45.268Z,3.70
2019-02-11T07:52:15.062Z,4.10
2019-02-11T07:54:44.945Z,3.67
2019-02-11T07:57:14.783Z,3.92
2019-02-11T07:59:44.564Z,3.98
2019-02-11T08:02:14.447Z,3.67
2019-02-11T08:04:45.465Z,3.72
2019-02-11T08:07:15.269Z,3.90
2019-02-11T08:09:45.129Z,4.13
2019-02-11T08:12:14.946Z,3.90
2019-02-11T08:14:44.753Z,3.97
2019-02-11T08:17:14.735Z,4.12
2019-02-11T08:19:44.537Z,4.37
2019-02-11T08:22:14.419Z,4.17
2019-02-11T08:24:44.282Z,3.87
2019-02-11T08:27:14.108Z,3.87
2019-02-11T08:29:43.983Z,3.75
2019-02-11T08:32:13.887Z,3.80
2019-02-11T08:34:43.753Z,4.28
2019-02-11T08:37:14.767Z,3.77
2019-02-11T08:39:44.594Z,4.12
2019-02-11T08:42:14.455Z,3.40
2019-02-11T08:44:44.292Z,3.83
2019-02-11T08:47:14.093Z,3.72
2019-02-11T08:49:44.035Z,3.35
2019-02-11T08:52:13.926Z,3.65
2019-02-11T08:54:43.865Z,3.30
2019-02-11T08:57:13.701Z,3.52
2019-02-11T08:59:43.489Z,3.42
2019-02-11T09:02:13.330Z,2.95
2019-02-11T09:04:43.135Z,3.30
2019-02-11T09:07:13.059Z,3.52
2019-02-11T09:09:42.855Z,3.20
2019-02-11T09:12:12.720Z,3.50
2019-02-11T09:14:42.580Z,3.33
2019-02-11T09:17:12.471Z,3.15
2019-02-11T09:19:42.310Z,2.90
2019-02-11T09:22:12.196Z,3.20
2019-02-11T09:24:42.127Z,2.70
2019-02-11T09:27:12.030Z,3.20
2019-02-11T09:29:41.910Z,2.80
2019-02-11T09:32:11.737Z,2.47
2019-02-11T09:34:41.599Z,2.92
2019-02-11T09:37:11.460Z,3.50
2019-02-11T09:39:41.252Z,3.83
2019-02-11T09:42:11.669Z,2.87
2019-02-11T09:44:41.484Z,2.70
2019-02-11T09:47:11.320Z,2.62
2019-02-11T09:49:41.138Z,2.58
2019-02-11T09:52:11.015Z,2.85
2019-02-11T09:54:40.906Z,2.25
2019-02-11T09:57:10.902Z,2.67
2019-02-11T09:59:40.705Z,2.70
2019-02-11T10:02:10.525Z,2.72
2019-02-11T10:04:40.332Z,3.22
2019-02-11T10:07:10.250Z,2.90
2019-02-11T10:09:40.180Z,2.77
2019-02-11T10:12:10.035Z,2.87
2019-02-11T10:14:39.906Z,2.70
2019-02-11T10:17:09.794Z,2.90
2019-02-11T10:19:39.662Z,3.02
2019-02-11T10:22:09.497Z,2.73
2019-02-11T10:24:39.317Z,2.75
2019-02-11T10:27:09.207Z,2.63
2019-02-11T10:29:39.181Z,2.62
2019-02-11T10:32:08.962Z,2.75
2019-02-11T10:34:38.817Z,2.80
2019-02-11T10:37:08.698Z,2.80
2019-02-11T10:39:38.469Z,2.75
2019-02-11T10:42:08.322Z,2.70
2019-02-11T10:44:38.250Z,2.83
2019-02-11T10:47:08.188Z,3.17
2019-02-11T10:49:38.060Z,3.15
2019-02-11T10:52:10.613Z,2.50
2019-02-11T10:54:40.427Z,2.62
2019-02-11T10:57:10.294Z,3.10
2019-02-11T10:59:40.292Z,2.83
2019-02-11T11:02:10.148Z,2.80
2019-02-11T11:04:39.943Z,3.05
2019-02-11T11:07:09.822Z,2.70
2019-02-11T11:09:39.642Z,2.60
2019-02-11T11:12:09.517Z,2.63
2019-02-11T11:14:39.412Z,2.30
2019-02-11T11:17:09.241Z,2.20
2019-02-11T11:19:39.067Z,2.50
2019-02-11T11:22:09.149Z,2.50
2019-02-11T11:24:40.563Z,2.33
2019-02-11T11:27:10.395Z,2.50
2019-02-11T11:29:40.337Z,2.33
2019-02-11T11:32:10.551Z,2.50
2019-02-11T11:34:41.186Z,2.40
2019-02-11T11:37:11.025Z,2.20
2019-02-11T11:39:40.857Z,2.40
2019-02-11T11:42:10.638Z,2.42
2019-02-11T11:44:40.448Z,2.30
2019-02-11T11:47:10.243Z,2.70
2019-02-11T11:49:40.074Z,2.80
2019-02-11T11:52:09.869Z,2.47
2019-02-11T11:54:39.802Z,2.60
2019-02-11T11:57:09.699Z,2.70
2019-02-11T11:59:39.575Z,2.87
2019-02-11T12:02:09.373Z,2.40
2019-02-11T12:04:41.622Z,2.40
2019-02-11T12:07:11.426Z,2.50
2019-02-11T12:09:43.826Z,2.83
2019-02-11T12:12:13.403Z,2.50
2019-02-11T12:14:43.350Z,2.35
2019-02-11T12:17:13.126Z,2.42
2019-02-11T12:19:42.938Z,2.40
2019-02-11T12:22:13.413Z,2.35
2019-02-11T12:24:43.413Z,2.20
2019-02-11T12:27:13.373Z,2.17
2019-02-11T12:29:43.172Z,1.98
2019-02-11T12:32:13.010Z,2.10
2019-02-11T12:34:42.819Z,2.00
2019-02-11T12:37:12.628Z,2.30
2019-02-11T12:39:42.556Z,2.10
2019-02-11T12:42:12.444Z,2.40
2019-02-11T12:44:42.293Z,2.47
2019-02-11T12:47:15.110Z,2.22
2019-02-11T12:49:44.802Z,1.90
2019-02-11T12:52:17.005Z,2.00
2019-02-11T12:54:47.827Z,2.00
2019-02-11T12:57:17.651Z,2.00
2019-02-11T12:59:47.687Z,1.90
2019-02-11T13:02:17.531Z,1.90
2019-02-11T13:04:47.321Z,2.02
2019-02-11T13:07:17.131Z,1.90
2019-02-11T13:09:46.978Z,1.90
2019-02-11T13:12:16.883Z,2.00
2019-02-11T13:14:46.673Z,1.80
2019-02-11T13:17:32.799Z,1.90
2019-02-11T13:19:48.261Z,1.72
2019-02-11T13:22:18.045Z,2.02
2019-02-11T13:24:47.924Z,2.10
2019-02-11T13:27:17.677Z,1.85
2019-02-11T13:29:47.558Z,1.90
2019-02-11T13:32:17.392Z,2.10
2019-02-11T13:34:48.272Z,2.00
2019-02-11T13:37:18.177Z,1.57
2019-02-11T13:39:47.982Z,2.00
2019-02-11T13:42:17.767Z,1.90
2019-02-11T13:44:47.635Z,1.67
2019-02-11T13:47:17.509Z,1.73
2019-02-11T13:49:47.367Z,1.50
2019-02-11T13:52:17.257Z,1.83
2019-02-11T13:54:47.059Z,1.87
2019-02-11T13:57:16.842Z,1.90
2019-02-11T13:59:46.654Z,2.30
2019-02-11T14:02:16.717Z,2.10
2019-02-11T14:04:46.594Z,1.80
2019-02-11T14:07:16.423Z,1.73
2019-02-11T14:09:46.313Z,1.77
2019-02-11T14:12:16.087Z,1.53
2019-02-11T14:14:45.941Z,1.77
2019-02-11T14:17:15.807Z,1.57
2019-02-11T14:19:45.593Z,1.83
2019-02-11T14:22:15.445Z,1.70
2019-02-11T14:24:45.282Z,1.70
2019-02-11T14:27:15.204Z,2.20
2019-02-11T14:29:45.056Z,1.90
2019-02-11T14:32:15.046Z,1.60
2019-02-11T14:34:45.097Z,2.00
2019-02-11T14:37:14.998Z,2.40
2019-02-11T14:39:44.988Z,2.07
2019-02-11T14:42:15.590Z,2.00
2019-02-11T14:44:45.626Z,1.80
2019-02-11T14:47:15.505Z,1.60
2019-02-11T14:49:45.431Z,2.00
2019-02-11T14:52:15.386Z,1.90
2019-02-11T14:54:45.305Z,2.10
2019-02-11T14:57:16.199Z,1.67
2019-02-11T14:59:46.025Z,2.17
2019-02-11T15:02:15.941Z,1.90
2019-02-11T15:04:45.844Z,1.70
2019-02-11T15:07:15.669Z,2.30
2019-02-11T15:09:45.610Z,2.13
2019-02-11T15:12:15.501Z,2.10
2019-02-11T15:14:45.441Z,1.97
2019-02-11T15:17:15.308Z,2.20
2019-02-11T15:19:45.103Z,2.20
2019-02-11T15:22:14.913Z,1.90
2019-02-11T15:24:44.743Z,2.30
2019-02-11T15:27:17.357Z,2.37
2019-02-11T15:29:46.164Z,2.30
2019-02-11T15:32:15.919Z,2.40
2019-02-11T15:34:45.743Z,3.27
2019-02-11T15:37:15.634Z,2.70
2019-02-11T15:39:45.526Z,2.60
2019-02-11T15:42:15.355Z,2.37
2019-02-11T15:44:45.192Z,2.70
2019-02-11T15:47:14.949Z,2.57
2019-02-11T15:49:47.802Z,2.20
2019-02-11T15:52:17.749Z,2.20
2019-02-11T15:54:47.841Z,2.13
2019-02-11T15:57:17.634Z,2.50
2019-02-11T15:59:47.501Z,2.23
2019-02-11T16:02:17.389Z,2.20
2019-02-11T16:04:47.235Z,2.60
2019-02-11T16:07:17.018Z,2.65
2019-02-11T16:09:47.055Z,2.70
2019-02-11T16:12:16.863Z,2.72
2019-02-11T16:14:46.669Z,2.93
2019-02-11T16:17:16.562Z,2.83
2019-02-11T16:19:46.449Z,2.77
2019-02-11T16:22:16.269Z,2.47
2019-02-11T16:24:46.135Z,2.77
2019-02-11T16:27:15.954Z,2.43
2019-02-11T16:29:45.749Z,2.80
2019-02-11T16:32:15.568Z,2.67
2019-02-11T16:34:45.359Z,2.70
2019-02-11T16:37:15.155Z,2.30
2019-02-11T16:39:44.978Z,2.13
2019-02-11T16:42:14.878Z,2.80
2019-02-11T16:44:44.760Z,2.23
2019-02-11T16:47:14.670Z,2.17
2019-02-11T16:49:44.464Z,2.27
2019-02-11T16:52:14.485Z,2.67
2019-02-11T16:54:44.383Z,2.13
2019-02-11T16:57:15.358Z,2.47
2019-02-11T16:59:45.255Z,2.50
2019-02-11T17:02:15.046Z,2.63
2019-02-11T17:04:44.883Z,2.43
2019-02-11T17:07:14.763Z,2.50
2019-02-11T17:09:44.753Z,2.77
2019-02-11T17:12:14.578Z,2.50
2019-02-11T17:14:44.391Z,2.77
2019-02-11T17:17:14.478Z,2.70
2019-02-11T17:19:45.342Z,2.53
2019-02-11T17:22:15.254Z,2.43
2019-02-11T17:24:45.090Z,2.70
2019-02-11T17:27:14.987Z,3.30
2019-02-11T17:29:44.906Z,3.07
2019-02-11T17:32:14.850Z,2.80
2019-02-11T17:34:44.735Z,2.90
2019-02-11T17:37:14.678Z,3.00
2019-02-11T17:39:44.550Z,3.80
2019-02-11T17:42:16.168Z,3.70
2019-02-11T17:44:45.993Z,3.37
2019-02-11T17:47:16.006Z,3.33
2019-02-11T17:49:45.849Z,3.93
2019-02-11T17:52:15.748Z,3.97
2019-02-11T17:54:46.432Z,4.10
2019-02-11T17:57:16.289Z,4.42
2019-02-11T17:59:46.131Z,4.20
2019-02-11T18:02:16.329Z,4.90
2019-02-11T18:04:46.206Z,5.03
2019-02-11T18:07:16.082Z,4.80
2019-02-11T18:09:45.989Z,4.47
2019-02-11T18:12:16.066Z,4.58
2019-02-11T18:14:45.915Z,4.87
2019-02-11T18:17:18.044Z,4.60
2019-02-11T18:19:47.948Z,4.60
2019-02-11T18:22:17.910Z,4.60
2019-02-11T18:24:47.971Z,4.33
2019-02-11T18:27:19.401Z,4.17
2019-02-11T18:29:49.234Z,4.45
2019-02-11T18:32:19.150Z,4.78
2019-02-11T18:34:49.026Z,4.40
2019-02-11T18:37:19.012Z,4.00
2019-02-11T18:39:49.892Z,3.20
2019-02-11T18:42:19.861Z,4.20
2019-02-11T18:44:49.688Z,4.28
2019-02-11T18:47:19.554Z,3.87
2019-02-11T18:49:49.445Z,4.28
2019-02-11T18:52:19.312Z,3.72
2019-02-11T18:54:49.178Z,3.95
2019-02-11T18:57:19.251Z,4.20
2019-02-11T18:59:49.058Z,6.33
2019-02-11T19:02:18.926Z,4.60
2019-02-11T19:04:49.977Z,4.73
2019-02-11T19:07:20.071Z,4.90
2019-02-11T19:09:49.971Z,4.90
2019-02-11T19:12:19.895Z,5.12
2019-02-11T19:14:49.754Z,5.20
2019-02-11T19:17:19.573Z,5.12
2019-02-11T19:19:49.538Z,5.20
2019-02-11T19:22:19.591Z,5.50
2019-02-11T19:24:49.409Z,6.40
2019-02-11T19:27:19.411Z,6.17
2019-02-11T19:29:49.286Z,6.55
2019-02-11T19:32:19.283Z,6.72
2019-02-11T19:34:49.182Z,6.83
2019-02-11T19:37:19.064Z,6.65
2019-02-11T19:39:48.976Z,6.63
2019-02-11T19:42:18.928Z,7.35
2019-02-11T19:44:48.831Z,7.40
2019-02-11T19:47:18.719Z,7.28
2019-02-11T19:49:51.697Z,7.28
2019-02-11T19:52:20.380Z,6.75
2019-02-11T19:54:50.293Z,7.00
2019-02-11T19:57:20.198Z,7.50
2019-02-11T19:59:50.051Z,7.58
2019-02-11T20:02:19.879Z,7.55
2019-02-11T20:04:49.806Z,8.00
2019-02-11T20:07:19.758Z,7.42
2019-02-11T20:09:49.625Z,7.30
2019-02-11T20:12:19.500Z,6.17
2019-02-11T20:14:50.415Z,6.28
2019-02-11T20:17:21.703Z,6.90
2019-02-11T20:19:59.944Z,6.95
2019-02-11T20:22:23.223Z,6.70
2019-02-11T20:24:53.154Z,6.50
2019-02-11T20:27:23.052Z,6.05
2019-02-11T20:29:52.947Z,6.85
2019-02-11T20:32:22.786Z,7.10
2019-02-11T20:34:52.759Z,7.05
2019-02-11T20:37:23.261Z,7.50
2019-02-11T20:39:53.090Z,7.42
2019-02-11T20:42:23.022Z,7.53
2019-02-11T20:44:53.026Z,7.30
2019-02-11T20:47:23.003Z,7.60
2019-02-11T20:49:52.951Z,7.00
2019-02-11T20:52:22.854Z,7.60
2019-02-11T20:54:52.661Z,7.30
2019-02-11T20:57:22.703Z,7.33
2019-02-11T20:59:58.230Z,7.85
2019-02-11T21:02:28.063Z,7.05
2019-02-11T21:04:57.946Z,7.90
2019-02-11T21:07:27.909Z,7.78
2019-02-11T21:09:57.890Z,8.28
2019-02-11T21:12:27.861Z,8.25
2019-02-11T21:14:57.856Z,7.58
2019-02-11T21:17:27.894Z,7.30
2019-02-11T21:19:57.810Z,7.15
2019-02-11T21:22:27.714Z,6.87
2019-02-11T21:25:00.367Z,6.15
2019-02-11T21:27:30.871Z,6.47
2019-02-11T21:30:03.811Z,6.50
2019-02-11T21:32:33.710Z,6.80
2019-02-11T21:35:03.742Z,7.20
2019-02-11T21:37:33.584Z,7.05
2019-02-11T21:40:04.602Z,6.72
2019-02-11T21:42:34.494Z,6.42
2019-02-11T21:45:04.892Z,6.10
2019-02-11T21:47:34.800Z,6.33
2019-02-11T21:50:04.968Z,6.75
2019-02-11T21:52:34.928Z,6.43
2019-02-11T21:55:05.115Z,6.75
2019-02-11T21:57:34.957Z,7.03
2019-02-11T22:00:05.653Z,6.10
2019-02-11T22:02:35.481Z,6.25
2019-02-11T22:05:05.572Z,6.50
2019-02-11T22:07:35.382Z,6.63
2019-02-11T22:10:06.298Z,6.90
2019-02-11T22:12:36.060Z,6.67
2019-02-11T22:15:06.473Z,6.37
2019-02-11T22:17:36.360Z,6.62
2019-02-11T22:20:07.283Z,6.42
2019-02-11T22:22:37.089Z,6.15
2019-02-11T22:25:07.642Z,6.40
2019-02-11T22:27:37.437Z,6.90
2019-02-11T22:30:09.660Z,7.50
2019-02-11T22:32:39.466Z,6.25
2019-02-11T22:35:09.952Z,7.37
2019-02-11T22:37:40.167Z,6.33
2019-02-11T22:40:11.037Z,7.35
2019-02-11T22:42:40.874Z,7.05
2019-02-11T22:45:13.085Z,6.53
2019-02-11T22:47:42.971Z,6.78
2019-02-11T22:50:12.821Z,7.10
2019-02-11T22:52:42.613Z,7.00
2019-02-11T22:55:12.603Z,7.28
2019-02-11T22:57:42.464Z,7.72
2019-02-11T23:00:35.420Z,6.97
2019-02-11T23:03:06.502Z,6.95
2019-02-11T23:05:36.314Z,7.45
2019-02-11T23:08:06.125Z,7.25
2019-02-11T23:10:35.996Z,6.87
2019-02-11T23:13:05.849Z,6.80
2019-02-11T23:15:36.476Z,7.28
2019-02-11T23:18:09.301Z,7.10
2019-02-11T23:20:39.109Z,7.10
2019-02-11T23:23:08.926Z,6.50
2019-02-11T23:25:38.744Z,6.40
2019-02-11T23:28:08.582Z,7.30
2019-02-11T23:30:38.460Z,7.10
2019-02-11T23:33:08.305Z,7.00
2019-02-11T23:35:38.163Z,7.37
2019-02-11T23:38:07.957Z,7.25
2019-02-11T23:40:39.441Z,6.67
2019-02-11T23:43:09.232Z,6.92
2019-02-11T23:45:39.025Z,6.57
2019-02-11T23:48:18.245Z,6.78
2019-02-11T23:50:48.042Z,6.75
2019-02-11T23:53:17.917Z,5.95
2019-02-11T23:55:50.472Z,6.28
2019-02-11T23:58:19.274Z,6.50
